sensor_id;sensor_type;location;lat;lon;timestamp;pressure;altitude;pressure_sealevel;temperature;humidity
50854;BME280;44154;45.506;-122.806;2022-12-20T00:01:24;101540.56;;;25.57;31.26
50854;BME280;44154;45.506;-122.806;2022-12-20T00:03:52;101575.53;;;25.79;30.93
50854;BME280;44154;45.506;-122.806;2022-12-20T00:06:19;101573.28;;;25.76;31.30
50854;BME280;44154;45.506;-122.806;2022-12-20T00:08:46;101567.94;;;25.69;31.48
50854;BME280;44154;45.506;-122.806;2022-12-20T00:11:12;101555.47;;;25.61;31.45
50854;BME280;44154;45.506;-122.806;2022-12-20T00:13:39;101560.94;;;25.61;31.33
50854;BME280;44154;45.506;-122.806;2022-12-20T00:16:19;101535.38;;;25.44;31.31
50854;BME280;44154;45.506;-122.806;2022-12-20T00:18:49;101568.88;;;25.75;32.13
50854;BME280;44154;45.506;-122.806;2022-12-20T00:21:16;101560.25;;;25.83;31.91
50854;BME280;44154;45.506;-122.806;2022-12-20T00:23:42;101564.19;;;25.87;31.40
50854;BME280;44154;45.506;-122.806;2022-12-20T00:26:13;101494.47;;;25.54;31.19
50854;BME280;44154;45.506;-122.806;2022-12-20T00:28:41;101571.63;;;26.04;31.09
50854;BME280;44154;45.506;-122.806;2022-12-20T00:33:47;101570.44;;;26.00;31.47
50854;BME280;44154;45.506;-122.806;2022-12-20T00:36:14;101565.44;;;25.96;31.10
50854;BME280;44154;45.506;-122.806;2022-12-20T00:38:46;101566.75;;;25.94;31.29
50854;BME280;44154;45.506;-122.806;2022-12-20T00:43:43;101556.78;;;25.88;31.22
50854;BME280;44154;45.506;-122.806;2022-12-20T00:46:11;101529.91;;;25.73;31.07
50854;BME280;44154;45.506;-122.806;2022-12-20T00:48:38;101558.34;;;25.84;31.07
50854;BME280;44154;45.506;-122.806;2022-12-20T00:51:10;101571.91;;;25.90;31.25
50854;BME280;44154;45.506;-122.806;2022-12-20T00:53:37;101557.34;;;26.02;31.01
50854;BME280;44154;45.506;-122.806;2022-12-20T00:56:04;101556.91;;;26.10;31.19
50854;BME280;44154;45.506;-122.806;2022-12-20T00:58:35;101554.34;;;26.20;30.93
50854;BME280;44154;45.506;-122.806;2022-12-20T01:01:02;101554.34;;;26.20;30.72
50854;BME280;44154;45.506;-122.806;2022-12-20T01:03:29;101545.19;;;26.14;30.93
50854;BME280;44154;45.506;-122.806;2022-12-20T01:06:00;101537.22;;;26.13;31.05
50854;BME280;44154;45.506;-122.806;2022-12-20T01:08:28;101536.91;;;26.09;30.81
50854;BME280;44154;45.506;-122.806;2022-12-20T01:11:01;101529.41;;;26.05;31.08
50854;BME280;44154;45.506;-122.806;2022-12-20T01:13:28;101487.53;;;25.80;30.75
50854;BME280;44154;45.506;-122.806;2022-12-20T01:15:54;101524.88;;;25.98;30.83
50854;BME280;44154;45.506;-122.806;2022-12-20T01:18:20;101512.75;;;25.94;30.77
50854;BME280;44154;45.506;-122.806;2022-12-20T01:20:47;101474.56;;;25.76;31.08
50854;BME280;44154;45.506;-122.806;2022-12-20T01:23:13;101509.91;;;25.89;30.84
50854;BME280;44154;45.506;-122.806;2022-12-20T01:25:39;101498.84;;;25.84;31.22
50854;BME280;44154;45.506;-122.806;2022-12-20T01:30:33;101461.16;;;25.62;31.64
50854;BME280;44154;45.506;-122.806;2022-12-20T01:32:59;101496.03;;;25.79;31.43
50854;BME280;44154;45.506;-122.806;2022-12-20T01:35:25;101498.41;;;25.75;31.51
50854;BME280;44154;45.506;-122.806;2022-12-20T01:37:51;101499.75;;;25.73;31.53
50854;BME280;44154;45.506;-122.806;2022-12-20T01:40:17;101461.59;;;25.54;31.22
50854;BME280;44154;45.506;-122.806;2022-12-20T01:47:55;101471.41;;;25.67;31.86
50854;BME280;44154;45.506;-122.806;2022-12-20T01:50:22;101468.91;;;25.66;32.07
50854;BME280;44154;45.506;-122.806;2022-12-20T01:52:49;101465.31;;;25.65;32.10
50854;BME280;44154;45.506;-122.806;2022-12-20T01:55:23;101453.19;;;25.61;32.19
50854;BME280;44154;45.506;-122.806;2022-12-20T01:58:09;101453.44;;;25.59;32.14
50854;BME280;44154;45.506;-122.806;2022-12-20T02:00:37;101452.25;;;25.55;32.15
50854;BME280;44154;45.506;-122.806;2022-12-20T02:03:10;101434.00;;;25.44;31.25
50854;BME280;44154;45.506;-122.806;2022-12-20T02:05:40;101405.19;;;25.58;32.38
50854;BME280;44154;45.506;-122.806;2022-12-20T02:08:07;101383.75;;;25.72;32.81
50854;BME280;44154;45.506;-122.806;2022-12-20T02:15:56;101403.13;;;26.00;32.03
50854;BME280;44154;45.506;-122.806;2022-12-20T02:21:11;101380.50;;;25.75;32.51
50854;BME280;44154;45.506;-122.806;2022-12-20T02:30:22;101385.94;;;25.87;32.37
50854;BME280;44154;45.506;-122.806;2022-12-20T02:32:23;101405.38;;;26.03;32.43
50854;BME280;44154;45.506;-122.806;2022-12-20T02:34:51;101357.16;;;25.90;32.57
50854;BME280;44154;45.506;-122.806;2022-12-20T02:37:17;101393.56;;;26.19;32.13
50854;BME280;44154;45.506;-122.806;2022-12-20T02:39:43;101397.06;;;26.14;32.28
50854;BME280;44154;45.506;-122.806;2022-12-20T02:42:31;101372.94;;;26.00;32.49
50854;BME280;44154;45.506;-122.806;2022-12-20T02:45:04;101432.66;;;26.26;32.33
50854;BME280;44154;45.506;-122.806;2022-12-20T02:50:11;101434.63;;;26.14;32.42
50854;BME280;44154;45.506;-122.806;2022-12-20T02:52:38;101444.03;;;26.18;32.51
50854;BME280;44154;45.506;-122.806;2022-12-20T02:55:05;101435.97;;;26.11;32.69
50854;BME280;44154;45.506;-122.806;2022-12-20T03:00:08;101446.28;;;26.04;33.00
50854;BME280;44154;45.506;-122.806;2022-12-20T03:02:36;101413.81;;;25.84;32.92
50854;BME280;44154;45.506;-122.806;2022-12-20T03:05:22;101420.16;;;25.85;32.31
50854;BME280;44154;45.506;-122.806;2022-12-20T03:07:50;101429.31;;;25.90;32.23
50854;BME280;44154;45.506;-122.806;2022-12-20T03:10:17;101422.41;;;25.88;32.42
50854;BME280;44154;45.506;-122.806;2022-12-20T03:12:43;101413.16;;;25.77;32.19
50854;BME280;44154;45.506;-122.806;2022-12-20T03:15:10;101424.47;;;25.80;32.24
50854;BME280;44154;45.506;-122.806;2022-12-20T03:17:36;101418.66;;;25.77;32.29
50854;BME280;44154;45.506;-122.806;2022-12-20T03:20:05;101398.88;;;25.75;32.17
50854;BME280;44154;45.506;-122.806;2022-12-20T03:22:32;101383.59;;;25.79;32.15
50854;BME280;44154;45.506;-122.806;2022-12-20T03:24:59;101422.84;;;26.13;32.20
50854;BME280;44154;45.506;-122.806;2022-12-20T03:27:25;101371.97;;;25.89;31.83
50854;BME280;44154;45.506;-122.806;2022-12-20T03:29:54;101414.34;;;26.15;32.04
50854;BME280;44154;45.506;-122.806;2022-12-20T03:32:21;101426.66;;;26.12;31.92
50854;BME280;44154;45.506;-122.806;2022-12-20T03:34:47;101445.28;;;26.10;32.10
50854;BME280;44154;45.506;-122.806;2022-12-20T03:37:14;101445.44;;;26.04;32.04
50854;BME280;44154;45.506;-122.806;2022-12-20T03:39:41;101405.03;;;25.82;32.34
50854;BME280;44154;45.506;-122.806;2022-12-20T03:42:07;101430.47;;;25.94;32.04
50854;BME280;44154;45.506;-122.806;2022-12-20T03:44:33;101431.44;;;25.88;32.24
50854;BME280;44154;45.506;-122.806;2022-12-20T03:46:59;101416.31;;;25.86;32.12
50854;BME280;44154;45.506;-122.806;2022-12-20T03:49:25;101378.84;;;25.57;32.01
50854;BME280;44154;45.506;-122.806;2022-12-20T03:51:52;101404.47;;;25.80;31.60
50854;BME280;44154;45.506;-122.806;2022-12-20T03:54:18;101404.78;;;25.84;32.19
50854;BME280;44154;45.506;-122.806;2022-12-20T03:56:44;101362.16;;;25.76;32.17
50854;BME280;44154;45.506;-122.806;2022-12-20T03:59:10;101395.56;;;26.07;31.93
50854;BME280;44154;45.506;-122.806;2022-12-20T04:01:36;101412.69;;;26.14;31.86
50854;BME280;44154;45.506;-122.806;2022-12-20T04:04:03;101383.41;;;25.86;31.89
50854;BME280;44154;45.506;-122.806;2022-12-20T04:06:30;101427.41;;;26.08;32.03
50854;BME280;44154;45.506;-122.806;2022-12-20T04:08:56;101427.66;;;26.06;31.82
50854;BME280;44154;45.506;-122.806;2022-12-20T04:11:22;101414.19;;;25.88;31.75
50854;BME280;44154;45.506;-122.806;2022-12-20T04:13:51;101434.59;;;25.97;31.97
50854;BME280;44154;45.506;-122.806;2022-12-20T04:16:26;101433.94;;;25.90;31.86
50854;BME280;44154;45.506;-122.806;2022-12-20T04:18:52;101430.88;;;25.86;31.98
50854;BME280;44154;45.506;-122.806;2022-12-20T04:21:31;101422.31;;;25.83;32.04
50854;BME280;44154;45.506;-122.806;2022-12-20T04:23:58;101394.91;;;25.66;31.75
50854;BME280;44154;45.506;-122.806;2022-12-20T04:26:25;101414.25;;;25.76;31.75
50854;BME280;44154;45.506;-122.806;2022-12-20T04:28:52;101435.44;;;25.80;31.94
50854;BME280;44154;45.506;-122.806;2022-12-20T04:31:18;101416.09;;;25.87;31.88
50854;BME280;44154;45.506;-122.806;2022-12-20T04:33:45;101411.50;;;25.93;31.77
50854;BME280;44154;45.506;-122.806;2022-12-20T04:36:13;101407.56;;;26.01;31.64
50854;BME280;44154;45.506;-122.806;2022-12-20T04:38:40;101385.03;;;25.82;31.38
50854;BME280;44154;45.506;-122.806;2022-12-20T04:41:06;101419.56;;;26.00;31.68
50854;BME280;44154;45.506;-122.806;2022-12-20T04:43:32;101413.88;;;26.01;31.54
50854;BME280;44154;45.506;-122.806;2022-12-20T04:45:58;101408.19;;;25.91;31.33
50854;BME280;44154;45.506;-122.806;2022-12-20T04:48:26;101424.38;;;25.92;31.51
50854;BME280;44154;45.506;-122.806;2022-12-20T04:50:53;101426.47;;;25.85;31.33
50854;BME280;44154;45.506;-122.806;2022-12-20T04:53:20;101421.47;;;25.82;31.64
50854;BME280;44154;45.506;-122.806;2022-12-20T04:56:05;101426.16;;;25.82;31.36
50854;BME280;44154;45.506;-122.806;2022-12-20T04:58:32;101428.53;;;25.78;31.18
50854;BME280;44154;45.506;-122.806;2022-12-20T05:00:58;101381.50;;;25.52;31.16
50854;BME280;44154;45.506;-122.806;2022-12-20T05:03:25;101423.88;;;25.78;31.45
50854;BME280;44154;45.506;-122.806;2022-12-20T05:05:52;101429.72;;;25.82;31.58
50854;BME280;44154;45.506;-122.806;2022-12-20T05:08:18;101415.34;;;25.75;31.71
50854;BME280;44154;45.506;-122.806;2022-12-20T05:10:44;101427.38;;;25.91;31.18
50854;BME280;44154;45.506;-122.806;2022-12-20T05:13:10;101420.81;;;25.92;31.05
50854;BME280;44154;45.506;-122.806;2022-12-20T05:15:37;101407.78;;;25.82;31.34
50854;BME280;44154;45.506;-122.806;2022-12-20T05:18:03;101381.41;;;25.64;31.02
50854;BME280;44154;45.506;-122.806;2022-12-20T05:20:30;101414.75;;;25.73;31.06
50854;BME280;44154;45.506;-122.806;2022-12-20T05:22:57;101426.97;;;25.82;31.28
50854;BME280;44154;45.506;-122.806;2022-12-20T05:25:45;101424.72;;;25.79;30.97
50854;BME280;44154;45.506;-122.806;2022-12-20T05:28:30;101413.09;;;25.72;31.19
50854;BME280;44154;45.506;-122.806;2022-12-20T05:30:56;101427.38;;;25.74;31.18
50854;BME280;44154;45.506;-122.806;2022-12-20T05:33:22;101426.44;;;25.68;31.26
50854;BME280;44154;45.506;-122.806;2022-12-20T05:35:49;101393.88;;;25.55;31.17
50854;BME280;44154;45.506;-122.806;2022-12-20T05:38:15;101438.94;;;25.76;31.27
50854;BME280;44154;45.506;-122.806;2022-12-20T05:40:41;101375.44;;;25.50;31.36
50854;BME280;44154;45.506;-122.806;2022-12-20T05:43:07;101427.28;;;25.86;31.15
50854;BME280;44154;45.506;-122.806;2022-12-20T05:45:34;101387.00;;;25.69;30.97
50854;BME280;44154;45.506;-122.806;2022-12-20T05:48:00;101427.06;;;25.87;30.98
50854;BME280;44154;45.506;-122.806;2022-12-20T05:50:26;101396.03;;;25.70;30.88
50854;BME280;44154;45.506;-122.806;2022-12-20T05:52:53;101427.47;;;25.79;31.04
50854;BME280;44154;45.506;-122.806;2022-12-20T05:55:19;101436.75;;;25.78;30.97
50854;BME280;44154;45.506;-122.806;2022-12-20T05:57:45;101434.53;;;25.75;30.83
50854;BME280;44154;45.506;-122.806;2022-12-20T06:00:11;101441.06;;;25.74;30.85
50854;BME280;44154;45.506;-122.806;2022-12-20T06:02:38;101437.78;;;25.72;30.84
50854;BME280;44154;45.506;-122.806;2022-12-20T06:05:05;101429.78;;;25.70;31.12
50854;BME280;44154;45.506;-122.806;2022-12-20T06:07:31;101425.47;;;25.74;31.29
50854;BME280;44154;45.506;-122.806;2022-12-20T06:09:57;101395.81;;;25.54;31.40
50854;BME280;44154;45.506;-122.806;2022-12-20T06:12:24;101410.34;;;25.72;31.27
50854;BME280;44154;45.506;-122.806;2022-12-20T06:14:51;101418.84;;;25.87;30.90
50854;BME280;44154;45.506;-122.806;2022-12-20T06:17:17;101366.81;;;25.58;30.92
50854;BME280;44154;45.506;-122.806;2022-12-20T06:19:44;101395.22;;;25.69;30.87
50854;BME280;44154;45.506;-122.806;2022-12-20T06:22:10;101419.06;;;25.86;30.95
50854;BME280;44154;45.506;-122.806;2022-12-20T06:24:38;101425.66;;;25.85;30.96
50854;BME280;44154;45.506;-122.806;2022-12-20T06:27:04;101434.38;;;25.82;30.99
50854;BME280;44154;45.506;-122.806;2022-12-20T06:29:32;101408.50;;;25.60;30.92
50854;BME280;44154;45.506;-122.806;2022-12-20T06:31:58;101430.97;;;25.74;31.13
50854;BME280;44154;45.506;-122.806;2022-12-20T06:34:24;101424.63;;;25.74;30.86
50854;BME280;44154;45.506;-122.806;2022-12-20T06:36:51;101427.78;;;25.66;30.96
50854;BME280;44154;45.506;-122.806;2022-12-20T06:39:17;101426.69;;;25.67;31.34
50854;BME280;44154;45.506;-122.806;2022-12-20T06:41:43;101425.72;;;25.73;31.42
50854;BME280;44154;45.506;-122.806;2022-12-20T06:44:09;101426.88;;;25.77;31.34
50854;BME280;44154;45.506;-122.806;2022-12-20T06:46:35;101406.69;;;25.66;31.38
50854;BME280;44154;45.506;-122.806;2022-12-20T06:49:02;101431.28;;;25.78;31.52
50854;BME280;44154;45.506;-122.806;2022-12-20T06:51:30;101411.75;;;25.57;31.52
50854;BME280;44154;45.506;-122.806;2022-12-20T06:53:56;101448.22;;;25.75;31.58
50854;BME280;44154;45.506;-122.806;2022-12-20T06:56:22;101439.44;;;25.73;31.23
50854;BME280;44154;45.506;-122.806;2022-12-20T06:58:49;101449.56;;;25.72;31.70
50854;BME280;44154;45.506;-122.806;2022-12-20T07:01:15;101442.91;;;25.68;31.60
50854;BME280;44154;45.506;-122.806;2022-12-20T07:03:41;101440.41;;;25.67;31.89
50854;BME280;44154;45.506;-122.806;2022-12-20T07:06:07;101447.22;;;25.64;31.97
50854;BME280;44154;45.506;-122.806;2022-12-20T07:08:33;101457.94;;;25.66;31.64
50854;BME280;44154;45.506;-122.806;2022-12-20T07:11:07;101456.19;;;25.59;31.81
50854;BME280;44154;45.506;-122.806;2022-12-20T07:13:33;101446.22;;;25.53;32.15
50854;BME280;44154;45.506;-122.806;2022-12-20T07:16:01;101451.19;;;25.56;31.87
50854;BME280;44154;45.506;-122.806;2022-12-20T07:18:28;101448.94;;;25.53;31.85
50854;BME280;44154;45.506;-122.806;2022-12-20T07:20:59;101434.44;;;25.41;31.52
50854;BME280;44154;45.506;-122.806;2022-12-20T07:23:25;101425.31;;;25.35;31.85
50854;BME280;44154;45.506;-122.806;2022-12-20T07:25:56;101437.19;;;25.41;32.10
50854;BME280;44154;45.506;-122.806;2022-12-20T07:28:23;101423.41;;;25.36;32.30
50854;BME280;44154;45.506;-122.806;2022-12-20T07:30:50;101437.69;;;25.38;32.23
50854;BME280;44154;45.506;-122.806;2022-12-20T07:33:16;101421.53;;;25.24;32.25
50854;BME280;44154;45.506;-122.806;2022-12-20T07:35:43;101421.53;;;25.24;32.08
50854;BME280;44154;45.506;-122.806;2022-12-20T07:38:14;101432.00;;;25.27;32.35
50854;BME280;44154;45.506;-122.806;2022-12-20T07:40:41;101433.66;;;25.28;32.20
50854;BME280;44154;45.506;-122.806;2022-12-20T07:43:08;101441.28;;;25.26;31.97
50854;BME280;44154;45.506;-122.806;2022-12-20T07:45:35;101407.09;;;25.00;32.12
50854;BME280;44154;45.506;-122.806;2022-12-20T07:48:03;101421.56;;;25.13;31.88
50854;BME280;44154;45.506;-122.806;2022-12-20T07:50:31;101447.88;;;25.14;31.99
50854;BME280;44154;45.506;-122.806;2022-12-20T07:52:58;101436.59;;;25.10;32.03
50854;BME280;44154;45.506;-122.806;2022-12-20T07:55:25;101448.38;;;25.10;32.01
50854;BME280;44154;45.506;-122.806;2022-12-20T07:58:04;101434.34;;;25.07;32.01
50854;BME280;44154;45.506;-122.806;2022-12-20T08:00:31;101423.50;;;25.00;32.17
50854;BME280;44154;45.506;-122.806;2022-12-20T08:03:19;101433.16;;;25.03;31.81
50854;BME280;44154;45.506;-122.806;2022-12-20T08:05:47;101432.56;;;25.01;31.57
50854;BME280;44154;45.506;-122.806;2022-12-20T08:08:16;101432.56;;;25.01;31.96
50854;BME280;44154;45.506;-122.806;2022-12-20T08:10:43;101423.75;;;24.99;32.20
50854;BME280;44154;45.506;-122.806;2022-12-20T08:13:09;101426.75;;;24.97;32.27
50854;BME280;44154;45.506;-122.806;2022-12-20T08:15:36;101411.78;;;24.88;32.79
50854;BME280;44154;45.506;-122.806;2022-12-20T08:18:02;101409.25;;;24.86;33.19
50854;BME280;44154;45.506;-122.806;2022-12-20T08:20:28;101397.72;;;24.84;33.11
50854;BME280;44154;45.506;-122.806;2022-12-20T08:22:54;101393.81;;;24.80;33.03
50854;BME280;44154;45.506;-122.806;2022-12-20T08:25:21;101398.78;;;24.83;33.40
50854;BME280;44154;45.506;-122.806;2022-12-20T08:27:47;101403.78;;;24.86;33.64
50854;BME280;44154;45.506;-122.806;2022-12-20T08:30:14;101403.31;;;24.89;33.92
50854;BME280;44154;45.506;-122.806;2022-12-20T08:32:40;101420.44;;;24.97;33.22
50854;BME280;44154;45.506;-122.806;2022-12-20T08:35:07;101410.94;;;24.87;33.08
50854;BME280;44154;45.506;-122.806;2022-12-20T08:37:33;101402.38;;;24.84;33.09
50854;BME280;44154;45.506;-122.806;2022-12-20T08:39:59;101407.63;;;24.85;33.06
50854;BME280;44154;45.506;-122.806;2022-12-20T08:42:26;101434.13;;;24.85;33.29
50854;BME280;44154;45.506;-122.806;2022-12-20T08:44:54;101427.50;;;24.81;33.10
50854;BME280;44154;45.506;-122.806;2022-12-20T08:47:20;101417.75;;;24.73;33.29
50854;BME280;44154;45.506;-122.806;2022-12-20T08:49:46;101420.72;;;24.71;33.14
50854;BME280;44154;45.506;-122.806;2022-12-20T08:52:12;101419.31;;;24.69;33.08
50854;BME280;44154;45.506;-122.806;2022-12-20T08:54:39;101428.94;;;24.71;33.58
50854;BME280;44154;45.506;-122.806;2022-12-20T08:57:05;101431.44;;;24.73;33.77
50854;BME280;44154;45.506;-122.806;2022-12-20T08:59:31;101429.31;;;24.75;33.62
50854;BME280;44154;45.506;-122.806;2022-12-20T09:01:57;101422.84;;;24.81;33.38
50854;BME280;44154;45.506;-122.806;2022-12-20T09:04:23;101428.91;;;24.83;33.21
50854;BME280;44154;45.506;-122.806;2022-12-20T09:06:49;101419.31;;;24.81;32.90
50854;BME280;44154;45.506;-122.806;2022-12-20T09:09:15;101418.69;;;24.79;32.98
50854;BME280;44154;45.506;-122.806;2022-12-20T09:11:42;101418.81;;;24.72;32.84
50854;BME280;44154;45.506;-122.806;2022-12-20T09:14:08;101401.19;;;24.56;33.03
50854;BME280;44154;45.506;-122.806;2022-12-20T09:16:34;101423.69;;;24.58;32.88
50854;BME280;44154;45.506;-122.806;2022-12-20T09:19:02;101417.88;;;24.54;32.89
50854;BME280;44154;45.506;-122.806;2022-12-20T09:21:28;101434.53;;;24.65;33.35
50854;BME280;44154;45.506;-122.806;2022-12-20T09:23:55;101421.47;;;24.67;33.63
50854;BME280;44154;45.506;-122.806;2022-12-20T09:26:22;101419.31;;;24.69;33.61
50854;BME280;44154;45.506;-122.806;2022-12-20T09:28:49;101417.25;;;24.76;33.08
50854;BME280;44154;45.506;-122.806;2022-12-20T09:31:18;101420.00;;;24.76;32.92
50854;BME280;44154;45.506;-122.806;2022-12-20T09:33:45;101413.13;;;24.73;32.96
50854;BME280;44154;45.506;-122.806;2022-12-20T09:36:14;101418.34;;;24.75;32.77
50854;BME280;44154;45.506;-122.806;2022-12-20T09:38:42;101412.19;;;24.68;32.82
50854;BME280;44154;45.506;-122.806;2022-12-20T09:41:38;101389.56;;;24.49;32.93
50854;BME280;44154;45.506;-122.806;2022-12-20T09:44:13;101415.75;;;24.68;32.85
50854;BME280;44154;45.506;-122.806;2022-12-20T09:46:41;101378.38;;;24.38;32.81
50854;BME280;44154;45.506;-122.806;2022-12-20T09:49:13;101408.09;;;24.58;32.61
50854;BME280;44154;45.506;-122.806;2022-12-20T09:57:42;101429.31;;;24.75;32.89
50854;BME280;44154;45.506;-122.806;2022-12-20T10:00:13;101417.66;;;24.68;32.54
50854;BME280;44154;45.506;-122.806;2022-12-20T10:02:40;101434.78;;;24.75;32.58
50854;BME280;44154;45.506;-122.806;2022-12-20T10:05:34;101437.16;;;24.71;32.68
50854;BME280;44154;45.506;-122.806;2022-12-20T10:13:53;101445.47;;;24.65;32.61
50854;BME280;44154;45.506;-122.806;2022-12-20T10:16:49;101443.00;;;24.63;32.90
50854;BME280;44154;45.506;-122.806;2022-12-20T10:24:50;101450.34;;;24.74;32.79
50854;BME280;44154;45.506;-122.806;2022-12-20T10:27:19;101449.03;;;24.77;32.53
50854;BME280;44154;45.506;-122.806;2022-12-20T10:29:47;101424.91;;;24.74;32.39
50854;BME280;44154;45.506;-122.806;2022-12-20T10:32:17;101429.56;;;24.73;32.54
50854;BME280;44154;45.506;-122.806;2022-12-20T10:37:37;101424.78;;;24.69;32.58
50854;BME280;44154;45.506;-122.806;2022-12-20T10:40:03;101434.06;;;24.68;32.45
50854;BME280;44154;45.506;-122.806;2022-12-20T10:42:37;101436.22;;;24.66;32.37
50854;BME280;44154;45.506;-122.806;2022-12-20T10:47:47;101419.06;;;24.58;32.47
50854;BME280;44154;45.506;-122.806;2022-12-20T10:50:23;101431.22;;;24.63;32.67
50854;BME280;44154;45.506;-122.806;2022-12-20T10:58:03;101442.25;;;24.80;32.50
50854;BME280;44154;45.506;-122.806;2022-12-20T11:00:31;101442.50;;;24.78;32.30
50854;BME280;44154;45.506;-122.806;2022-12-20T11:06:00;101411.47;;;24.61;32.16
50854;BME280;44154;45.506;-122.806;2022-12-20T11:08:30;101433.59;;;24.71;32.20
50854;BME280;44154;45.506;-122.806;2022-12-20T11:11:22;101424.78;;;24.69;32.27
50854;BME280;44154;45.506;-122.806;2022-12-20T11:13:50;101425.88;;;24.68;32.25
50854;BME280;44154;45.506;-122.806;2022-12-20T11:16:23;101425.00;;;24.67;32.20
50854;BME280;44154;45.506;-122.806;2022-12-20T11:19:17;101404.78;;;24.68;32.60
50854;BME280;44154;45.506;-122.806;2022-12-20T11:21:59;101404.53;;;24.70;32.86
50854;BME280;44154;45.506;-122.806;2022-12-20T11:24:41;101393.47;;;24.76;32.36
50854;BME280;44154;45.506;-122.806;2022-12-20T11:28:07;101386.66;;;24.79;32.43
50854;BME280;44154;45.506;-122.806;2022-12-20T11:36:29;101370.16;;;24.74;32.00
50854;BME280;44154;45.506;-122.806;2022-12-20T11:39:14;101367.41;;;24.74;32.14
50854;BME280;44154;45.506;-122.806;2022-12-20T11:45:25;101363.97;;;24.67;31.94
50854;BME280;44154;45.506;-122.806;2022-12-20T11:47:48;101358.00;;;24.70;32.12
50854;BME280;44154;45.506;-122.806;2022-12-20T11:50:41;101361.56;;;24.70;32.51
50854;BME280;44154;45.506;-122.806;2022-12-20T11:53:24;101365.25;;;24.76;32.24
50854;BME280;44154;45.506;-122.806;2022-12-20T11:55:56;101352.66;;;24.75;32.00
50854;BME280;44154;45.506;-122.806;2022-12-20T12:01:19;101351.72;;;24.69;32.04
50854;BME280;44154;45.506;-122.806;2022-12-20T12:06:37;101349.69;;;24.65;32.16
50854;BME280;44154;45.506;-122.806;2022-12-20T12:09:16;101340.66;;;24.64;31.92
50854;BME280;44154;45.506;-122.806;2022-12-20T12:12:11;101356.47;;;24.74;31.93
50854;BME280;44154;45.506;-122.806;2022-12-20T12:18:27;101362.44;;;24.71;32.08
50854;BME280;44154;45.506;-122.806;2022-12-20T12:26:26;101337.50;;;24.84;31.81
50854;BME280;44154;45.506;-122.806;2022-12-20T12:28:55;101331.78;;;24.86;31.67
50854;BME280;44154;45.506;-122.806;2022-12-20T12:31:51;101331.44;;;24.82;31.92
50854;BME280;44154;45.506;-122.806;2022-12-20T12:46:07;101310.66;;;24.69;31.78
50854;BME280;44154;45.506;-122.806;2022-12-20T12:51:27;101312.56;;;24.69;32.09
50854;BME280;44154;45.506;-122.806;2022-12-20T12:56:47;101323.81;;;24.84;31.77
50854;BME280;44154;45.506;-122.806;2022-12-20T13:17:56;101306.84;;;24.70;31.57
50854;BME280;44154;45.506;-122.806;2022-12-20T13:20:31;101307.44;;;24.72;31.86
50854;BME280;44154;45.506;-122.806;2022-12-20T13:25:41;101286.97;;;24.75;31.76
50854;BME280;44154;45.506;-122.806;2022-12-20T13:33:46;101291.53;;;24.86;31.54
50854;BME280;44154;45.506;-122.806;2022-12-20T13:43:58;101275.00;;;25.10;31.73
50854;BME280;44154;45.506;-122.806;2022-12-20T13:46:31;101263.38;;;25.03;31.40
50854;BME280;44154;45.506;-122.806;2022-12-20T13:49:02;101278.41;;;25.17;31.27
50854;BME280;44154;45.506;-122.806;2022-12-20T13:51:29;101268.75;;;25.15;31.10
50854;BME280;44154;45.506;-122.806;2022-12-20T13:53:59;101259.13;;;25.12;31.33
50854;BME280;44154;45.506;-122.806;2022-12-20T13:59:04;101256.31;;;25.07;31.20
50854;BME280;44154;45.506;-122.806;2022-12-20T14:01:32;101255.00;;;25.09;31.45
50854;BME280;44154;45.506;-122.806;2022-12-20T14:04:03;101260.72;;;25.08;31.27
50854;BME280;44154;45.506;-122.806;2022-12-20T14:06:31;101259.72;;;25.14;31.42
50854;BME280;44154;45.506;-122.806;2022-12-20T14:08:58;101252.69;;;25.18;31.39
50854;BME280;44154;45.506;-122.806;2022-12-20T14:11:25;101258.31;;;25.28;31.33
50854;BME280;44154;45.506;-122.806;2022-12-20T14:13:53;101274.28;;;25.32;31.08
50854;BME280;44154;45.506;-122.806;2022-12-20T14:16:21;101276.44;;;25.30;31.08
50854;BME280;44154;45.506;-122.806;2022-12-20T14:19:10;101256.75;;;25.16;31.03
50854;BME280;44154;45.506;-122.806;2022-12-20T14:21:44;101273.84;;;25.23;31.11
50854;BME280;44154;45.506;-122.806;2022-12-20T14:24:17;101254.75;;;25.11;30.90
50854;BME280;44154;45.506;-122.806;2022-12-20T14:26:47;101278.72;;;25.21;31.17
50854;BME280;44154;45.506;-122.806;2022-12-20T14:29:26;101273.25;;;25.21;31.28
50854;BME280;44154;45.506;-122.806;2022-12-20T14:31:53;101271.00;;;25.18;31.20
50854;BME280;44154;45.506;-122.806;2022-12-20T14:34:32;101281.06;;;25.29;31.29
50854;BME280;44154;45.506;-122.806;2022-12-20T14:37:33;101270.81;;;25.36;31.20
50854;BME280;44154;45.506;-122.806;2022-12-20T14:42:38;101280.94;;;25.36;30.98
50854;BME280;44154;45.506;-122.806;2022-12-20T14:47:55;101284.19;;;25.33;30.78
50854;BME280;44154;45.506;-122.806;2022-12-20T14:50:35;101278.94;;;25.31;30.88
50854;BME280;44154;45.506;-122.806;2022-12-20T14:53:02;101287.38;;;25.30;30.71
50854;BME280;44154;45.506;-122.806;2022-12-20T14:55:30;101283.81;;;25.29;31.15
50854;BME280;44154;45.506;-122.806;2022-12-20T14:57:57;101284.44;;;25.31;31.22
50854;BME280;44154;45.506;-122.806;2022-12-20T15:00:29;101280.69;;;25.37;31.22